Terminal Aerodrome Forecast
Issued by NWS

Home | Current Version | Previous Version | Text Only | Print | Product List | Glossary On
Versions: 1 2 3 4 5 6 7 8 9 10 11 12 13
000
FTUS42 TJSJ 142300 RRA
TAFJMZ
TAF
TJMZ 142339Z 1500/1524 09005KT P6SM -RA SCT025 BKN050 BKN100
     FM150200 06003KT P6SM FEW030 SCT070 SCT120
     FM151450 09008KT P6SM VCSH FEW022 SCT040
     FM151700 30011KT P6SM VCTS SCT025CB BKN040
      AMD NOT SKED TIL 151100=

USA.gov is the U.S. government's official web portal to all federal, state and local government web resources and services.